createdAt,value
2018-05-26T00:01:30.990Z,18.30
2018-05-26T00:05:33.454Z,18.24
2018-05-26T00:09:35.951Z,18.19
2018-05-26T00:13:38.451Z,18.15
2018-05-26T00:17:40.913Z,18.07
2018-05-26T00:21:43.410Z,18.02
2018-05-26T00:25:45.953Z,17.99
2018-05-26T00:29:48.422Z,17.96
2018-05-26T00:33:50.926Z,17.94
2018-05-26T00:37:53.477Z,17.90
2018-05-26T00:41:55.969Z,17.90
2018-05-26T00:45:58.458Z,17.89
2018-05-26T00:50:00.938Z,17.85
2018-05-26T00:54:03.455Z,17.82
2018-05-26T00:58:06.747Z,17.78
2018-05-26T01:02:09.245Z,17.76
2018-05-26T01:06:11.801Z,17.73
2018-05-26T01:10:14.311Z,17.71
2018-05-26T01:14:16.771Z,17.69
2018-05-26T01:18:19.333Z,17.69
2018-05-26T01:22:21.807Z,17.67
2018-05-26T01:26:24.311Z,17.67
2018-05-26T01:30:26.789Z,17.66
2018-05-26T01:34:29.278Z,17.63
2018-05-26T01:38:31.786Z,17.61
2018-05-26T01:42:34.289Z,17.60
2018-05-26T01:46:36.785Z,17.58
2018-05-26T01:50:39.303Z,17.56
2018-05-26T01:54:41.804Z,17.52
2018-05-26T01:58:44.304Z,17.50
2018-05-26T02:02:46.816Z,17.49
2018-05-26T02:06:49.313Z,17.48
2018-05-26T02:10:51.778Z,17.49
2018-05-26T02:14:54.326Z,17.47
2018-05-26T02:18:56.828Z,17.44
2018-05-26T02:22:59.336Z,17.41
2018-05-26T02:27:01.836Z,17.41
2018-05-26T02:31:04.338Z,17.37
2018-05-26T02:35:06.844Z,17.32
2018-05-26T02:39:09.307Z,17.29
2018-05-26T02:43:11.798Z,17.26
2018-05-26T02:47:14.321Z,17.22
2018-05-26T02:51:16.858Z,17.20
2018-05-26T02:55:19.323Z,17.20
2018-05-26T02:59:21.816Z,17.20
2018-05-26T03:03:24.293Z,17.18
2018-05-26T03:07:32.462Z,17.12
2018-05-26T03:11:40.617Z,17.06
2018-05-26T03:20:23.151Z,17.01
2018-05-26T03:24:25.651Z,16.99
2018-05-26T03:28:28.113Z,16.97
2018-05-26T03:32:30.603Z,16.98
2018-05-26T03:36:33.093Z,17.00
2018-05-26T03:40:35.669Z,17.01
2018-05-26T03:44:38.161Z,17.03
2018-05-26T03:48:40.646Z,17.04
2018-05-26T03:52:43.134Z,17.03
2018-05-26T03:56:57.562Z,17.00
2018-05-26T04:01:00.042Z,17.01
2018-05-26T04:05:02.503Z,17.05
2018-05-26T04:09:05.807Z,17.08
2018-05-26T04:13:08.277Z,17.08
2018-05-26T04:17:10.765Z,17.10
2018-05-26T04:21:13.230Z,17.12
2018-05-26T04:25:15.719Z,17.09
2018-05-26T04:29:18.257Z,17.12
2018-05-26T04:33:20.748Z,17.16
2018-05-26T04:37:23.230Z,17.17
2018-05-26T04:41:25.716Z,17.18
2018-05-26T04:45:28.186Z,17.19
2018-05-26T04:49:30.670Z,17.23
2018-05-26T04:53:33.152Z,17.30
2018-05-26T04:57:35.642Z,17.37
2018-05-26T05:01:38.125Z,17.45
2018-05-26T05:05:40.629Z,17.52
2018-05-26T05:09:43.090Z,17.61
2018-05-26T05:13:45.593Z,17.75
2018-05-26T05:17:48.103Z,17.85
2018-05-26T05:21:50.594Z,17.99
2018-05-26T05:25:53.077Z,18.12
2018-05-26T05:29:55.579Z,18.27
2018-05-26T05:33:58.078Z,18.39
2018-05-26T05:38:00.563Z,18.54
2018-05-26T05:42:03.053Z,18.72
2018-05-26T05:46:05.510Z,18.86
2018-05-26T05:50:07.993Z,19.02
2018-05-26T05:54:10.452Z,19.14
2018-05-26T05:58:12.959Z,19.30
2018-05-26T06:02:15.461Z,19.47
2018-05-26T06:06:17.952Z,19.61
2018-05-26T06:10:20.437Z,19.75
2018-05-26T06:14:22.952Z,19.91
2018-05-26T06:18:25.408Z,20.09
2018-05-26T06:22:27.893Z,20.13
2018-05-26T06:26:30.437Z,20.22
2018-05-26T06:30:32.852Z,20.36
2018-05-26T06:34:35.343Z,20.41
2018-05-26T06:38:37.861Z,20.50
2018-05-26T06:42:40.337Z,20.64
2018-05-26T06:46:42.820Z,20.83
2018-05-26T06:50:45.338Z,21.03
2018-05-26T06:54:47.809Z,21.24
2018-05-26T06:58:50.289Z,21.27
2018-05-26T07:02:52.755Z,21.25
2018-05-26T07:06:55.241Z,21.38
2018-05-26T07:10:57.717Z,21.53
2018-05-26T07:15:00.203Z,21.69
2018-05-26T07:19:02.667Z,21.85
2018-05-26T07:23:05.153Z,21.97
2018-05-26T07:27:07.643Z,22.11
2018-05-26T07:31:10.125Z,22.21
2018-05-26T07:35:12.610Z,22.32
2018-05-26T07:39:15.089Z,22.37
2018-05-26T07:43:17.605Z,22.37
2018-05-26T07:47:20.070Z,22.41
2018-05-26T07:51:22.549Z,22.47
2018-05-26T07:55:25.043Z,22.56
2018-05-26T07:59:27.500Z,22.70
2018-05-26T08:03:29.970Z,22.86
2018-05-26T08:07:32.457Z,23.00
2018-05-26T08:11:34.945Z,23.11
2018-05-26T08:15:37.431Z,23.23
2018-05-26T08:19:39.991Z,23.40
2018-05-26T08:23:42.483Z,23.58
2018-05-26T08:27:44.976Z,23.69
2018-05-26T08:31:47.458Z,23.78
2018-05-26T08:35:49.937Z,23.88
2018-05-26T08:39:52.397Z,24.01
2018-05-26T08:43:54.883Z,24.10
2018-05-26T08:47:57.365Z,24.13
2018-05-26T08:51:59.850Z,24.23
2018-05-26T08:56:02.313Z,24.39
2018-05-26T09:00:04.798Z,24.53
2018-05-26T09:04:07.263Z,24.66
2018-05-26T09:08:09.767Z,24.75
2018-05-26T09:12:12.240Z,24.89
2018-05-26T09:16:14.750Z,24.96
2018-05-26T09:20:17.254Z,25.01
2018-05-26T09:24:19.758Z,25.13
2018-05-26T09:28:22.221Z,25.29
2018-05-26T09:32:24.710Z,25.28
2018-05-26T09:36:27.199Z,25.40
2018-05-26T09:40:29.679Z,25.50
2018-05-26T09:44:32.163Z,25.67
2018-05-26T09:48:34.649Z,25.78
2018-05-26T09:52:37.131Z,25.78
2018-05-26T09:56:39.618Z,25.83
2018-05-26T10:00:42.106Z,25.91
2018-05-26T10:04:44.587Z,25.98
2018-05-26T10:08:47.034Z,26.15
2018-05-26T10:12:49.596Z,26.24
2018-05-26T10:16:52.086Z,26.21
2018-05-26T10:20:54.565Z,26.18
2018-05-26T10:24:57.022Z,26.20
2018-05-26T10:28:59.515Z,26.24
2018-05-26T10:33:01.985Z,26.33
2018-05-26T10:37:04.467Z,26.37
2018-05-26T10:41:06.966Z,26.37
2018-05-26T10:45:09.436Z,26.48
2018-05-26T10:49:11.943Z,26.60
2018-05-26T10:53:14.418Z,26.66
2018-05-26T10:57:16.939Z,26.72
2018-05-26T11:01:19.409Z,26.77
2018-05-26T11:05:21.890Z,26.86
2018-05-26T11:09:24.352Z,26.85
2018-05-26T11:13:26.838Z,26.83
2018-05-26T11:17:29.343Z,26.88
2018-05-26T11:21:31.790Z,26.90
2018-05-26T11:25:34.316Z,27.00
2018-05-26T11:29:36.763Z,27.04
2018-05-26T11:33:39.289Z,27.02
2018-05-26T11:37:41.754Z,27.09
2018-05-26T11:41:44.252Z,27.05
2018-05-26T11:45:46.735Z,27.13
2018-05-26T11:49:49.219Z,27.21
2018-05-26T11:53:51.697Z,27.18
2018-05-26T11:57:54.178Z,27.23
2018-05-26T12:01:56.643Z,27.31
2018-05-26T12:05:59.115Z,27.25
2018-05-26T12:10:01.559Z,27.27
2018-05-26T12:14:04.047Z,27.28
2018-05-26T12:18:06.965Z,27.23
2018-05-26T12:22:09.443Z,27.29
2018-05-26T12:26:11.935Z,27.38
2018-05-26T12:30:14.405Z,27.44
2018-05-26T12:34:16.879Z,27.45
2018-05-26T12:38:19.361Z,27.45
2018-05-26T12:42:21.845Z,27.60
2018-05-26T12:46:24.326Z,27.71
2018-05-26T12:50:43.703Z,27.72
2018-05-26T12:54:46.205Z,27.76
2018-05-26T12:58:48.687Z,27.80
2018-05-26T13:02:51.175Z,27.87
2018-05-26T13:06:53.658Z,27.88
2018-05-26T13:10:56.113Z,27.76
2018-05-26T13:14:58.604Z,27.82
2018-05-26T13:19:01.078Z,27.85
2018-05-26T13:23:03.567Z,27.90
2018-05-26T13:27:06.062Z,27.91
2018-05-26T13:31:08.546Z,27.90
2018-05-26T13:35:11.075Z,27.88
2018-05-26T13:39:13.514Z,27.89
2018-05-26T13:43:15.973Z,27.96
2018-05-26T13:47:18.451Z,27.98
2018-05-26T13:51:20.919Z,27.93
2018-05-26T13:55:23.411Z,27.92
2018-05-26T13:59:25.895Z,27.87
2018-05-26T14:03:28.383Z,27.88
2018-05-26T14:07:30.837Z,27.97
2018-05-26T14:11:33.321Z,28.01
2018-05-26T14:15:35.802Z,27.98
2018-05-26T14:19:38.274Z,27.97
2018-05-26T14:23:40.729Z,28.00
2018-05-26T14:27:43.213Z,27.98
2018-05-26T14:31:45.675Z,27.96
2018-05-26T14:35:48.144Z,27.90
2018-05-26T14:39:50.625Z,27.93
2018-05-26T14:43:53.109Z,27.86
2018-05-26T14:47:55.590Z,27.80
2018-05-26T14:51:58.034Z,27.81
2018-05-26T14:56:00.500Z,27.75
2018-05-26T15:00:02.990Z,27.75
2018-05-26T15:04:05.473Z,27.77
2018-05-26T15:08:07.951Z,27.75
2018-05-26T15:12:10.422Z,27.69
2018-05-26T15:16:12.922Z,27.68
2018-05-26T15:20:15.371Z,27.68
2018-05-26T15:24:17.838Z,27.65
2018-05-26T15:28:20.310Z,27.63
2018-05-26T15:32:22.795Z,27.63
2018-05-26T15:36:25.278Z,27.59
2018-05-26T15:40:27.755Z,27.54
2018-05-26T15:44:30.210Z,27.51
2018-05-26T15:48:32.707Z,27.46
2018-05-26T15:52:35.150Z,27.39
2018-05-26T15:56:37.622Z,27.34
2018-05-26T16:00:40.082Z,27.30
2018-05-26T16:04:42.580Z,27.23
2018-05-26T16:08:45.057Z,27.19
2018-05-26T16:12:47.536Z,27.15
2018-05-26T16:16:50.017Z,27.15
2018-05-26T16:20:52.483Z,27.16
2018-05-26T16:24:54.953Z,27.14
2018-05-26T16:28:57.440Z,27.08
2018-05-26T16:32:59.929Z,27.05
2018-05-26T16:37:02.384Z,27.02
2018-05-26T16:41:04.874Z,27.01
2018-05-26T16:45:07.349Z,26.99
2018-05-26T16:49:09.823Z,27.00
2018-05-26T16:53:12.266Z,26.98
2018-05-26T16:57:14.747Z,26.94
2018-05-26T17:01:17.214Z,26.92
2018-05-26T17:05:19.699Z,26.93
2018-05-26T17:09:22.252Z,26.88
2018-05-26T17:13:24.779Z,26.86
2018-05-26T17:17:27.253Z,26.82
2018-05-26T17:21:29.735Z,26.75
2018-05-26T17:25:32.227Z,26.72
2018-05-26T17:29:34.712Z,26.67
2018-05-26T17:33:37.168Z,26.61
2018-05-26T17:37:39.642Z,26.58
2018-05-26T17:41:42.123Z,26.53
2018-05-26T17:45:44.567Z,26.48
2018-05-26T17:49:47.048Z,26.45
2018-05-26T17:53:49.522Z,26.39
2018-05-26T17:57:52.001Z,26.33
2018-05-26T18:01:54.473Z,26.20
2018-05-26T18:05:56.956Z,26.12
2018-05-26T18:09:59.436Z,26.07
2018-05-26T18:14:01.919Z,26.03
2018-05-26T18:18:04.398Z,25.95
2018-05-26T18:22:06.874Z,25.87
2018-05-26T18:26:09.374Z,25.81
2018-05-26T18:30:11.884Z,25.75
2018-05-26T18:34:14.356Z,25.67
2018-05-26T18:38:16.840Z,25.62
2018-05-26T18:42:19.319Z,25.58
2018-05-26T18:46:21.773Z,25.54
2018-05-26T18:50:24.258Z,25.51
2018-05-26T18:54:26.739Z,25.48
2018-05-26T18:58:29.185Z,25.43
2018-05-26T19:02:31.707Z,25.35
2018-05-26T19:06:34.236Z,25.28
2018-05-26T19:10:36.694Z,25.21
2018-05-26T19:14:39.171Z,25.16
2018-05-26T19:18:41.657Z,25.11
2018-05-26T19:22:44.107Z,25.02
2018-05-26T19:26:46.594Z,24.96
2018-05-26T19:30:49.067Z,24.87
2018-05-26T19:34:51.522Z,24.81
2018-05-26T19:38:54.024Z,24.72
2018-05-26T19:42:56.510Z,24.63
2018-05-26T19:46:58.997Z,24.50
2018-05-26T19:51:01.479Z,24.42
2018-05-26T19:55:03.986Z,24.38
2018-05-26T19:59:06.453Z,24.32
2018-05-26T20:03:08.990Z,24.25
2018-05-26T20:07:11.478Z,24.19
2018-05-26T20:11:13.924Z,24.13
2018-05-26T20:15:16.411Z,24.02
2018-05-26T20:19:18.920Z,23.91
2018-05-26T20:23:21.387Z,23.86
2018-05-26T20:27:23.876Z,23.84
2018-05-26T20:31:26.354Z,23.82
2018-05-26T20:35:28.886Z,23.79
2018-05-26T20:39:31.363Z,23.75
2018-05-26T20:43:33.878Z,23.69
2018-05-26T20:47:36.331Z,23.63
2018-05-26T20:51:38.818Z,23.56
2018-05-26T20:55:41.302Z,23.50
2018-05-26T20:59:43.790Z,23.43
2018-05-26T21:03:46.274Z,23.36
2018-05-26T21:07:48.764Z,23.29
2018-05-26T21:11:51.252Z,23.20
2018-05-26T21:15:53.758Z,23.11
2018-05-26T21:19:56.253Z,23.02
2018-05-26T21:23:58.724Z,22.96
2018-05-26T21:28:01.211Z,22.91
2018-05-26T21:32:03.695Z,22.82
2018-05-26T21:36:06.175Z,22.71
2018-05-26T21:40:08.641Z,22.62
2018-05-26T21:44:11.120Z,22.54
2018-05-26T21:48:13.617Z,22.48
2018-05-26T21:52:16.072Z,22.45
2018-05-26T21:56:18.568Z,22.40
2018-05-26T22:00:21.058Z,22.36
2018-05-26T22:04:23.507Z,22.31
2018-05-26T22:08:26.010Z,22.25
2018-05-26T22:12:28.516Z,22.21
2018-05-26T22:16:30.980Z,22.18
2018-05-26T22:20:33.462Z,22.15
2018-05-26T22:24:35.963Z,22.12
2018-05-26T22:28:38.454Z,22.09
2018-05-26T22:32:40.969Z,22.07
2018-05-26T22:36:43.441Z,22.07
2018-05-26T22:40:45.931Z,22.01
2018-05-26T22:44:48.415Z,21.92
2018-05-26T22:48:50.902Z,21.86
2018-05-26T22:52:53.382Z,21.83
2018-05-26T22:56:55.856Z,21.81
2018-05-26T23:00:58.351Z,21.79
2018-05-26T23:05:00.857Z,21.76
2018-05-26T23:09:03.321Z,21.72
2018-05-26T23:13:05.816Z,21.69
2018-05-26T23:17:08.294Z,21.65
2018-05-26T23:21:10.779Z,21.61
2018-05-26T23:25:13.266Z,21.56
2018-05-26T23:29:15.742Z,21.51
2018-05-26T23:33:18.228Z,21.49
2018-05-26T23:37:21.667Z,21.48
2018-05-26T23:41:24.149Z,21.45
2018-05-26T23:45:26.643Z,21.37
2018-05-26T23:49:29.125Z,21.33
2018-05-26T23:53:31.604Z,21.28
2018-05-26T23:57:34.109Z,21.23
